Weather at Air Evac 3 Heliport

Public forecast

Using degrees Fahrenheit for public forecast. Weather courtesy of forecast.io.

Closest aviation weather report (METAR) to Air Evac 3 Heliport

Closest report is Sikeston Memorial Municipal Airport, 2.9 nm (5.4 km) SSW. Retrieved 2021/11/29 14:15 UTC (12 minutes ago):

KSIK 291415Z AUTO 00000KT 10SM CLR 01/00 A3024 RMK AO2 TSNO

Closest aviation forecast (TAF) to Air Evac 3 Heliport

Closest forecast is Cape Girardeau Regional Airport, 17.1 nm (31.6 km) N. Retrieved 2021/11/29 12:46 UTC (2 hours ago):

TAF KCGI 291143Z 2912/3012 18004KT P6SM FEW250 FM291900 19010G18KT P6SM FEW250 FM300200 20009KT P6SM SKC FM301000 23005KT P6SM SKC